sensor_id;sensor_type;location;lat;lon;timestamp;pressure;altitude;pressure_sealevel;temperature;humidity
56038;BME280;41907;47.848;9.000;2022-07-29T00:01:48;95691.38;;;19.27;100.00
56038;BME280;41907;47.848;9.000;2022-07-29T00:04:14;95683.16;;;19.20;100.00
56038;BME280;41907;47.848;9.000;2022-07-29T00:06:39;95683.00;;;19.09;100.00
56038;BME280;41907;47.848;9.000;2022-07-29T00:09:05;95679.47;;;18.82;100.00
56038;BME280;41907;47.848;9.000;2022-07-29T00:11:30;95678.03;;;18.88;100.00
56038;BME280;41907;47.848;9.000;2022-07-29T00:13:56;95678.09;;;18.92;100.00
56038;BME280;41907;47.848;9.000;2022-07-29T00:16:22;95677.19;;;18.84;100.00
56038;BME280;41907;47.848;9.000;2022-07-29T00:18:48;95678.59;;;18.75;100.00
56038;BME280;41907;47.848;9.000;2022-07-29T00:21:13;95673.47;;;18.50;100.00
56038;BME280;41907;47.848;9.000;2022-07-29T00:23:39;95677.72;;;18.48;100.00
56038;BME280;41907;47.848;9.000;2022-07-29T00:26:04;95681.75;;;18.57;100.00
56038;BME280;41907;47.848;9.000;2022-07-29T00:28:29;95674.69;;;18.53;100.00
56038;BME280;41907;47.848;9.000;2022-07-29T00:30:55;95671.16;;;18.49;100.00
56038;BME280;41907;47.848;9.000;2022-07-29T00:33:20;95667.81;;;18.55;100.00
56038;BME280;41907;47.848;9.000;2022-07-29T00:35:47;95678.88;;;18.50;100.00
56038;BME280;41907;47.848;9.000;2022-07-29T00:38:18;95668.03;;;18.47;100.00
56038;BME280;41907;47.848;9.000;2022-07-29T00:40:44;95663.34;;;18.44;100.00
56038;BME280;41907;47.848;9.000;2022-07-29T00:43:11;95660.28;;;18.45;100.00
56038;BME280;41907;47.848;9.000;2022-07-29T00:45:37;95657.88;;;18.40;100.00
56038;BME280;41907;47.848;9.000;2022-07-29T00:48:03;95653.78;;;18.27;100.00
56038;BME280;41907;47.848;9.000;2022-07-29T00:50:30;95654.94;;;18.26;100.00
56038;BME280;41907;47.848;9.000;2022-07-29T00:52:56;95652.88;;;18.19;100.00
56038;BME280;41907;47.848;9.000;2022-07-29T00:55:22;95654.50;;;18.24;100.00
56038;BME280;41907;47.848;9.000;2022-07-29T00:57:47;95650.59;;;18.21;100.00
56038;BME280;41907;47.848;9.000;2022-07-29T01:00:16;95652.16;;;18.22;100.00
56038;BME280;41907;47.848;9.000;2022-07-29T01:02:43;95652.88;;;18.19;100.00
56038;BME280;41907;47.848;9.000;2022-07-29T01:05:11;95656.78;;;18.22;100.00
56038;BME280;41907;47.848;9.000;2022-07-29T01:07:38;95651.81;;;18.24;100.00
56038;BME280;41907;47.848;9.000;2022-07-29T01:10:05;95650.66;;;18.25;100.00
56038;BME280;41907;47.848;9.000;2022-07-29T01:12:32;95650.91;;;18.16;100.00
56038;BME280;41907;47.848;9.000;2022-07-29T01:14:59;95645.06;;;18.14;100.00
56038;BME280;41907;47.848;9.000;2022-07-29T01:17:41;95638.97;;;18.17;100.00
56038;BME280;41907;47.848;9.000;2022-07-29T01:28:42;95637.06;;;18.18;100.00
56038;BME280;41907;47.848;9.000;2022-07-29T01:31:16;95625.63;;;18.05;100.00
56038;BME280;41907;47.848;9.000;2022-07-29T01:33:45;95629.09;;;18.06;100.00
56038;BME280;41907;47.848;9.000;2022-07-29T01:36:18;95618.09;;;17.95;100.00
56038;BME280;41907;47.848;9.000;2022-07-29T01:38:54;95613.72;;;17.87;100.00
56038;BME280;41907;47.848;9.000;2022-07-29T01:41:24;95621.03;;;17.87;100.00
56038;BME280;41907;47.848;9.000;2022-07-29T01:44:13;95622.50;;;17.84;100.00
56038;BME280;41907;47.848;9.000;2022-07-29T01:46:47;95611.47;;;17.70;100.00
56038;BME280;41907;47.848;9.000;2022-07-29T01:49:17;95611.88;;;17.72;100.00
56038;BME280;41907;47.848;9.000;2022-07-29T01:51:49;95613.81;;;17.71;100.00
56038;BME280;41907;47.848;9.000;2022-07-29T01:54:38;95615.72;;;17.71;100.00
56038;BME280;41907;47.848;9.000;2022-07-29T01:57:09;95598.84;;;17.74;100.00
56038;BME280;41907;47.848;9.000;2022-07-29T01:59:37;95607.03;;;17.62;100.00
56038;BME280;41907;47.848;9.000;2022-07-29T02:02:04;95612.44;;;17.62;100.00
56038;BME280;41907;47.848;9.000;2022-07-29T02:04:35;95610.09;;;17.60;100.00
56038;BME280;41907;47.848;9.000;2022-07-29T02:07:05;95608.09;;;17.57;100.00
56038;BME280;41907;47.848;9.000;2022-07-29T02:09:33;95607.50;;;17.64;100.00
56038;BME280;41907;47.848;9.000;2022-07-29T02:12:00;95607.84;;;17.62;100.00
56038;BME280;41907;47.848;9.000;2022-07-29T02:14:31;95609.31;;;17.60;100.00
56038;BME280;41907;47.848;9.000;2022-07-29T02:16:59;95608.09;;;17.57;100.00
56038;BME280;41907;47.848;9.000;2022-07-29T02:19:25;95605.47;;;17.61;100.00
56038;BME280;41907;47.848;9.000;2022-07-29T02:21:52;95609.44;;;17.47;100.00
56038;BME280;41907;47.848;9.000;2022-07-29T02:24:19;95603.63;;;17.45;100.00
56038;BME280;41907;47.848;9.000;2022-07-29T02:26:47;95609.19;;;17.37;100.00
56038;BME280;41907;47.848;9.000;2022-07-29T02:29:14;95615.53;;;17.25;100.00
56038;BME280;41907;47.848;9.000;2022-07-29T02:31:41;95610.47;;;17.24;100.00
56038;BME280;41907;47.848;9.000;2022-07-29T02:34:10;95613.75;;;17.33;100.00
56038;BME280;41907;47.848;9.000;2022-07-29T02:36:36;95599.00;;;17.27;100.00
56038;BME280;41907;47.848;9.000;2022-07-29T02:39:02;95611.63;;;17.23;100.00
56038;BME280;41907;47.848;9.000;2022-07-29T02:41:30;95607.16;;;17.30;100.00
56038;BME280;41907;47.848;9.000;2022-07-29T02:44:06;95613.41;;;17.34;100.00
56038;BME280;41907;47.848;9.000;2022-07-29T02:46:36;95616.50;;;17.36;100.00
56038;BME280;41907;47.848;9.000;2022-07-29T02:49:38;95620.56;;;17.46;100.00
56038;BME280;41907;47.848;9.000;2022-07-29T02:52:13;95623.84;;;17.36;100.00
56038;BME280;41907;47.848;9.000;2022-07-29T02:57:38;95616.06;;;17.15;100.00
56038;BME280;41907;47.848;9.000;2022-07-29T03:00:06;95611.91;;;17.02;100.00
56038;BME280;41907;47.848;9.000;2022-07-29T03:02:36;95613.34;;;16.96;100.00
56038;BME280;41907;47.848;9.000;2022-07-29T03:05:04;95619.75;;;16.91;100.00
56038;BME280;41907;47.848;9.000;2022-07-29T03:07:33;95618.47;;;16.85;100.00
56038;BME280;41907;47.848;9.000;2022-07-29T03:09:59;95622.44;;;16.91;100.00
56038;BME280;41907;47.848;9.000;2022-07-29T03:12:25;95616.47;;;16.98;100.00
56038;BME280;41907;47.848;9.000;2022-07-29T03:14:51;95622.00;;;17.05;100.00
56038;BME280;41907;47.848;9.000;2022-07-29T03:17:17;95625.13;;;17.07;100.00
56038;BME280;41907;47.848;9.000;2022-07-29T03:19:43;95617.75;;;17.04;100.00
56038;BME280;41907;47.848;9.000;2022-07-29T03:22:09;95618.25;;;17.09;100.00
56038;BME280;41907;47.848;9.000;2022-07-29T03:24:36;95615.97;;;17.11;100.00
56038;BME280;41907;47.848;9.000;2022-07-29T03:27:03;95617.47;;;17.09;100.00
56038;BME280;41907;47.848;9.000;2022-07-29T03:29:29;95617.41;;;17.05;100.00
56038;BME280;41907;47.848;9.000;2022-07-29T03:31:55;95612.25;;;17.00;100.00
56038;BME280;41907;47.848;9.000;2022-07-29T03:34:21;95609.84;;;16.95;100.00
56038;BME280;41907;47.848;9.000;2022-07-29T03:36:46;95608.00;;;16.99;100.00
56038;BME280;41907;47.848;9.000;2022-07-29T03:39:15;95605.41;;;17.03;100.00
56038;BME280;41907;47.848;9.000;2022-07-29T03:41:42;95597.03;;;16.89;100.00
56038;BME280;41907;47.848;9.000;2022-07-29T03:44:09;95595.50;;;16.91;100.00
56038;BME280;41907;47.848;9.000;2022-07-29T03:46:37;95609.31;;;16.90;100.00
56038;BME280;41907;47.848;9.000;2022-07-29T03:49:04;95619.56;;;17.00;100.00
56038;BME280;41907;47.848;9.000;2022-07-29T03:51:33;95614.72;;;17.05;100.00
56038;BME280;41907;47.848;9.000;2022-07-29T03:53:59;95609.03;;;17.10;100.00
56038;BME280;41907;47.848;9.000;2022-07-29T03:56:27;95618.47;;;17.20;100.00
56038;BME280;41907;47.848;9.000;2022-07-29T03:58:54;95610.53;;;17.27;100.00
56038;BME280;41907;47.848;9.000;2022-07-29T04:01:20;95605.72;;;17.17;100.00
56038;BME280;41907;47.848;9.000;2022-07-29T04:03:46;95608.84;;;17.19;100.00
56038;BME280;41907;47.848;9.000;2022-07-29T04:06:11;95617.44;;;17.25;100.00
56038;BME280;41907;47.848;9.000;2022-07-29T04:08:37;95617.88;;;17.27;100.00
56038;BME280;41907;47.848;9.000;2022-07-29T04:11:04;95618.72;;;17.31;100.00
56038;BME280;41907;47.848;9.000;2022-07-29T04:13:30;95618.50;;;17.39;100.00
56038;BME280;41907;47.848;9.000;2022-07-29T04:15:55;95623.69;;;17.48;100.00
56038;BME280;41907;47.848;9.000;2022-07-29T04:18:21;95631.16;;;17.55;100.00
56038;BME280;41907;47.848;9.000;2022-07-29T04:20:46;95625.78;;;17.55;100.00
56038;BME280;41907;47.848;9.000;2022-07-29T04:23:12;95631.81;;;17.67;100.00
56038;BME280;41907;47.848;9.000;2022-07-29T04:25:38;95631.16;;;17.93;100.00
56038;BME280;41907;47.848;9.000;2022-07-29T04:28:05;95628.66;;;18.04;100.00
56038;BME280;41907;47.848;9.000;2022-07-29T04:30:31;95630.56;;;18.22;100.00
56038;BME280;41907;47.848;9.000;2022-07-29T04:32:57;95631.16;;;18.12;100.00
56038;BME280;41907;47.848;9.000;2022-07-29T04:35:23;95649.22;;;18.08;100.00
56038;BME280;41907;47.848;9.000;2022-07-29T04:37:48;95645.44;;;17.94;100.00
56038;BME280;41907;47.848;9.000;2022-07-29T04:40:14;95643.41;;;17.87;100.00
56038;BME280;41907;47.848;9.000;2022-07-29T04:42:39;95651.56;;;17.71;100.00
56038;BME280;41907;47.848;9.000;2022-07-29T04:45:05;95643.63;;;17.78;100.00
56038;BME280;41907;47.848;9.000;2022-07-29T04:47:31;95648.94;;;17.75;100.00
56038;BME280;41907;47.848;9.000;2022-07-29T04:49:56;95654.31;;;17.75;100.00
56038;BME280;41907;47.848;9.000;2022-07-29T04:52:22;95652.50;;;17.79;100.00
56038;BME280;41907;47.848;9.000;2022-07-29T04:54:48;95655.84;;;17.72;100.00
56038;BME280;41907;47.848;9.000;2022-07-29T04:57:14;95647.66;;;17.69;100.00
56038;BME280;41907;47.848;9.000;2022-07-29T04:59:39;95648.56;;;17.76;100.00
56038;BME280;41907;47.848;9.000;2022-07-29T05:02:04;95651.84;;;17.85;100.00
56038;BME280;41907;47.848;9.000;2022-07-29T05:04:30;95644.03;;;17.80;100.00
56038;BME280;41907;47.848;9.000;2022-07-29T05:06:55;95643.41;;;17.68;100.00
56038;BME280;41907;47.848;9.000;2022-07-29T05:09:20;95645.75;;;17.69;100.00
56038;BME280;41907;47.848;9.000;2022-07-29T05:11:46;95644.97;;;17.69;100.00
56038;BME280;41907;47.848;9.000;2022-07-29T05:14:11;95648.78;;;17.68;100.00
56038;BME280;41907;47.848;9.000;2022-07-29T05:16:36;95644.97;;;17.69;100.00
56038;BME280;41907;47.848;9.000;2022-07-29T05:19:02;95648.94;;;17.75;100.00
56038;BME280;41907;47.848;9.000;2022-07-29T05:21:27;95639.13;;;17.67;100.00
56038;BME280;41907;47.848;9.000;2022-07-29T05:23:53;95649.00;;;17.78;100.00
56038;BME280;41907;47.848;9.000;2022-07-29T05:26:18;95651.72;;;17.78;100.00
56038;BME280;41907;47.848;9.000;2022-07-29T05:28:44;95646.09;;;17.87;100.00
56038;BME280;41907;47.848;9.000;2022-07-29T05:31:09;95649.72;;;17.95;100.00
56038;BME280;41907;47.848;9.000;2022-07-29T05:33:34;95645.25;;;17.83;100.00
56038;BME280;41907;47.848;9.000;2022-07-29T05:36:00;95643.13;;;17.92;100.00
56038;BME280;41907;47.848;9.000;2022-07-29T05:38:25;95650.91;;;17.97;100.00
56038;BME280;41907;47.848;9.000;2022-07-29T05:40:50;95647.94;;;18.02;100.00
56038;BME280;41907;47.848;9.000;2022-07-29T05:43:16;95653.25;;;17.99;100.00
56038;BME280;41907;47.848;9.000;2022-07-29T05:45:41;95646.44;;;18.05;100.00
56038;BME280;41907;47.848;9.000;2022-07-29T05:48:06;95641.59;;;18.14;100.00
56038;BME280;41907;47.848;9.000;2022-07-29T05:50:32;95641.31;;;18.19;100.00
56038;BME280;41907;47.848;9.000;2022-07-29T05:52:57;95638.63;;;18.19;100.00
56038;BME280;41907;47.848;9.000;2022-07-29T05:55:23;95632.34;;;18.15;100.00
56038;BME280;41907;47.848;9.000;2022-07-29T05:57:48;95648.56;;;18.15;100.00
56038;BME280;41907;47.848;9.000;2022-07-29T06:00:14;95650.66;;;18.25;100.00
56038;BME280;41907;47.848;9.000;2022-07-29T06:02:39;95642.22;;;18.27;100.00
56038;BME280;41907;47.848;9.000;2022-07-29T06:05:05;95657.31;;;18.31;100.00
56038;BME280;41907;47.848;9.000;2022-07-29T06:07:30;95656.25;;;18.36;100.00
56038;BME280;41907;47.848;9.000;2022-07-29T06:09:57;95659.38;;;18.57;100.00
56038;BME280;41907;47.848;9.000;2022-07-29T06:12:22;95660.41;;;18.52;100.00
56038;BME280;41907;47.848;9.000;2022-07-29T06:14:48;95651.88;;;18.50;100.00
56038;BME280;41907;47.848;9.000;2022-07-29T06:17:15;95653.44;;;18.97;100.00
56038;BME280;41907;47.848;9.000;2022-07-29T06:19:41;95658.19;;;19.56;100.00
56038;BME280;41907;47.848;9.000;2022-07-29T06:22:06;95657.97;;;20.02;100.00
56038;BME280;41907;47.848;9.000;2022-07-29T06:24:32;95665.53;;;20.19;100.00
56038;BME280;41907;47.848;9.000;2022-07-29T06:26:57;95667.53;;;20.26;100.00
56038;BME280;41907;47.848;9.000;2022-07-29T06:29:22;95672.25;;;20.32;100.00
56038;BME280;41907;47.848;9.000;2022-07-29T06:31:48;95669.50;;;20.29;100.00
56038;BME280;41907;47.848;9.000;2022-07-29T06:34:13;95661.44;;;19.99;100.00
56038;BME280;41907;47.848;9.000;2022-07-29T06:36:39;95672.75;;;20.08;100.00
56038;BME280;41907;47.848;9.000;2022-07-29T06:39:05;95675.97;;;20.21;100.00
56038;BME280;41907;47.848;9.000;2022-07-29T06:41:31;95672.06;;;20.15;100.00
56038;BME280;41907;47.848;9.000;2022-07-29T06:43:57;95677.75;;;20.06;100.00
56038;BME280;41907;47.848;9.000;2022-07-29T06:46:22;95679.41;;;20.14;100.00
56038;BME280;41907;47.848;9.000;2022-07-29T06:48:48;95687.34;;;20.33;100.00
56038;BME280;41907;47.848;9.000;2022-07-29T06:51:13;95684.31;;;20.35;100.00
56038;BME280;41907;47.848;9.000;2022-07-29T06:53:39;95687.31;;;20.30;100.00
56038;BME280;41907;47.848;9.000;2022-07-29T06:56:06;95685.75;;;20.29;100.00
56038;BME280;41907;47.848;9.000;2022-07-29T06:58:34;95694.91;;;20.47;100.00
56038;BME280;41907;47.848;9.000;2022-07-29T07:01:04;95697.06;;;20.71;100.00
56038;BME280;41907;47.848;9.000;2022-07-29T07:03:31;95699.66;;;21.01;100.00
56038;BME280;41907;47.848;9.000;2022-07-29T07:05:57;95702.38;;;21.05;100.00
56038;BME280;41907;47.848;9.000;2022-07-29T07:08:23;95697.16;;;20.82;100.00
56038;BME280;41907;47.848;9.000;2022-07-29T07:10:49;95707.59;;;20.80;100.00
56038;BME280;41907;47.848;9.000;2022-07-29T07:13:14;95709.97;;;20.85;100.00
56038;BME280;41907;47.848;9.000;2022-07-29T07:15:43;95715.31;;;20.78;100.00
56038;BME280;41907;47.848;9.000;2022-07-29T07:18:08;95717.66;;;20.79;100.00
56038;BME280;41907;47.848;9.000;2022-07-29T07:20:34;95731.91;;;20.73;100.00
56038;BME280;41907;47.848;9.000;2022-07-29T07:23:00;95736.41;;;20.99;100.00
56038;BME280;41907;47.848;9.000;2022-07-29T07:25:26;95724.53;;;21.14;100.00
56038;BME280;41907;47.848;9.000;2022-07-29T07:27:51;95729.41;;;21.38;100.00
56038;BME280;41907;47.848;9.000;2022-07-29T07:30:16;95739.97;;;21.50;100.00
56038;BME280;41907;47.848;9.000;2022-07-29T07:32:42;95741.91;;;21.50;100.00
56038;BME280;41907;47.848;9.000;2022-07-29T07:35:09;95736.34;;;21.32;100.00
56038;BME280;41907;47.848;9.000;2022-07-29T07:37:34;95734.53;;;21.50;100.00
56038;BME280;41907;47.848;9.000;2022-07-29T07:40:00;95738.38;;;21.46;100.00
56038;BME280;41907;47.848;9.000;2022-07-29T07:42:26;95748.63;;;21.70;100.00
56038;BME280;41907;47.848;9.000;2022-07-29T07:44:51;95755.56;;;22.30;100.00
56038;BME280;41907;47.848;9.000;2022-07-29T07:47:18;95742.28;;;22.07;100.00
56038;BME280;41907;47.848;9.000;2022-07-29T07:49:48;95741.88;;;22.05;100.00
56038;BME280;41907;47.848;9.000;2022-07-29T07:52:15;95749.31;;;22.22;98.70
56038;BME280;41907;47.848;9.000;2022-07-29T07:54:41;95747.09;;;22.45;94.76
56038;BME280;41907;47.848;9.000;2022-07-29T07:57:06;95745.31;;;23.17;88.43
56038;BME280;41907;47.848;9.000;2022-07-29T07:59:31;95737.53;;;23.54;85.09
56038;BME280;41907;47.848;9.000;2022-07-29T08:01:57;95744.16;;;23.53;82.35
56038;BME280;41907;47.848;9.000;2022-07-29T08:04:23;95744.16;;;23.57;81.14
56038;BME280;41907;47.848;9.000;2022-07-29T08:06:48;95742.56;;;23.84;78.72
56038;BME280;41907;47.848;9.000;2022-07-29T08:09:15;95740.97;;;23.90;76.51
56038;BME280;41907;47.848;9.000;2022-07-29T08:11:40;95738.66;;;23.89;75.41
56038;BME280;41907;47.848;9.000;2022-07-29T08:14:05;95745.56;;;24.29;75.84
56038;BME280;41907;47.848;9.000;2022-07-29T08:16:31;95748.22;;;24.46;74.20
56038;BME280;41907;47.848;9.000;2022-07-29T08:18:56;95749.75;;;24.51;75.58
56038;BME280;41907;47.848;9.000;2022-07-29T08:21:23;95753.25;;;24.52;75.77
56038;BME280;41907;47.848;9.000;2022-07-29T08:23:49;95741.53;;;24.58;74.77
56038;BME280;41907;47.848;9.000;2022-07-29T08:26:18;95744.28;;;24.55;73.90
56038;BME280;41907;47.848;9.000;2022-07-29T08:28:45;95745.91;;;24.41;75.29
56038;BME280;41907;47.848;9.000;2022-07-29T08:31:11;95742.44;;;24.30;75.12
56038;BME280;41907;47.848;9.000;2022-07-29T08:33:37;95750.28;;;24.14;75.67
56038;BME280;41907;47.848;9.000;2022-07-29T08:36:04;95751.44;;;24.24;76.59
56038;BME280;41907;47.848;9.000;2022-07-29T08:38:30;95747.53;;;24.21;75.60
56038;BME280;41907;47.848;9.000;2022-07-29T08:40:55;95749.50;;;24.10;75.11
56038;BME280;41907;47.848;9.000;2022-07-29T08:43:21;95748.38;;;23.90;77.42
56038;BME280;41907;47.848;9.000;2022-07-29T08:45:48;95751.13;;;23.76;78.60
56038;BME280;41907;47.848;9.000;2022-07-29T08:48:17;95751.94;;;23.65;78.14
56038;BME280;41907;47.848;9.000;2022-07-29T08:50:44;95755.81;;;23.47;80.02
56038;BME280;41907;47.848;9.000;2022-07-29T08:53:15;95760.47;;;23.43;79.56
56038;BME280;41907;47.848;9.000;2022-07-29T08:55:46;95763.59;;;23.30;80.08
56038;BME280;41907;47.848;9.000;2022-07-29T08:58:13;95769.03;;;23.20;79.76
56038;BME280;41907;47.848;9.000;2022-07-29T09:00:42;95771.34;;;23.11;80.88
56038;BME280;41907;47.848;9.000;2022-07-29T09:03:09;95769.75;;;23.02;81.57
56038;BME280;41907;47.848;9.000;2022-07-29T09:05:35;95779.47;;;22.93;83.29
56038;BME280;41907;47.848;9.000;2022-07-29T09:08:01;95782.22;;;22.93;82.11
56038;BME280;41907;47.848;9.000;2022-07-29T09:10:27;95787.22;;;22.87;81.98
56038;BME280;41907;47.848;9.000;2022-07-29T09:12:54;95789.19;;;22.97;82.31
56038;BME280;41907;47.848;9.000;2022-07-29T09:15:19;95791.56;;;23.10;82.12
56038;BME280;41907;47.848;9.000;2022-07-29T09:17:47;95784.53;;;23.12;81.64
56038;BME280;41907;47.848;9.000;2022-07-29T09:20:19;95783.00;;;23.22;81.95
56038;BME280;41907;47.848;9.000;2022-07-29T09:22:45;95774.06;;;23.14;79.46
56038;BME280;41907;47.848;9.000;2022-07-29T09:25:31;95779.13;;;23.16;79.06
56038;BME280;41907;47.848;9.000;2022-07-29T09:28:08;95776.78;;;23.25;78.26
56038;BME280;41907;47.848;9.000;2022-07-29T09:30:34;95770.56;;;23.31;79.01
56038;BME280;41907;47.848;9.000;2022-07-29T09:33:02;95770.97;;;23.37;79.36
56038;BME280;41907;47.848;9.000;2022-07-29T09:35:29;95772.13;;;23.36;79.22
56038;BME280;41907;47.848;9.000;2022-07-29T09:37:55;95766.69;;;23.32;81.34
56038;BME280;41907;47.848;9.000;2022-07-29T09:40:23;95768.25;;;23.30;81.91
56038;BME280;41907;47.848;9.000;2022-07-29T09:42:48;95762.41;;;23.24;82.27
56038;BME280;41907;47.848;9.000;2022-07-29T09:45:30;95765.13;;;23.17;83.07
56038;BME280;41907;47.848;9.000;2022-07-29T09:47:57;95778.72;;;23.14;81.34
56038;BME280;41907;47.848;9.000;2022-07-29T09:50:38;95774.06;;;23.07;83.43
56038;BME280;41907;47.848;9.000;2022-07-29T09:53:05;95767.03;;;22.92;83.20
56038;BME280;41907;47.848;9.000;2022-07-29T09:55:30;95770.91;;;22.87;83.91
56038;BME280;41907;47.848;9.000;2022-07-29T09:58:15;95774.38;;;22.84;86.63
56038;BME280;41907;47.848;9.000;2022-07-29T10:00:44;95767.75;;;22.75;84.53
56038;BME280;41907;47.848;9.000;2022-07-29T10:03:10;95763.81;;;22.58;83.61
56038;BME280;41907;47.848;9.000;2022-07-29T10:05:36;95761.34;;;22.17;84.50
56038;BME280;41907;47.848;9.000;2022-07-29T10:08:02;95776.50;;;22.29;85.21
56038;BME280;41907;47.848;9.000;2022-07-29T10:10:29;95770.66;;;22.16;85.48
56038;BME280;41907;47.848;9.000;2022-07-29T10:13:13;95773.75;;;22.22;87.35
56038;BME280;41907;47.848;9.000;2022-07-29T10:15:41;95768.19;;;21.97;88.25
56038;BME280;41907;47.848;9.000;2022-07-29T10:18:10;95760.41;;;21.96;90.84
56038;BME280;41907;47.848;9.000;2022-07-29T10:20:37;95764.66;;;21.93;92.52
56038;BME280;41907;47.848;9.000;2022-07-29T10:23:03;95764.94;;;21.74;90.05
56038;BME280;41907;47.848;9.000;2022-07-29T10:25:29;95756.97;;;21.44;92.13
56038;BME280;41907;47.848;9.000;2022-07-29T10:27:54;95768.22;;;21.46;93.70
56038;BME280;41907;47.848;9.000;2022-07-29T10:30:21;95762.28;;;21.30;95.71
56038;BME280;41907;47.848;9.000;2022-07-29T10:36:00;95755.06;;;21.48;94.29
56038;BME280;41907;47.848;9.000;2022-07-29T10:44:00;95750.94;;;21.68;90.15
56038;BME280;41907;47.848;9.000;2022-07-29T10:46:26;95749.00;;;21.69;87.84
56038;BME280;41907;47.848;9.000;2022-07-29T10:49:14;95751.97;;;22.08;86.90
56038;BME280;41907;47.848;9.000;2022-07-29T10:59:46;95733.97;;;24.83;71.71
56038;BME280;41907;47.848;9.000;2022-07-29T11:05:05;95744.50;;;24.85;67.99
56038;BME280;41907;47.848;9.000;2022-07-29T11:07:32;95731.63;;;24.93;67.35
56038;BME280;41907;47.848;9.000;2022-07-29T11:15:03;95728.59;;;26.78;60.76
56038;BME280;41907;47.848;9.000;2022-07-29T11:23:29;95729.03;;;27.03;62.04
56038;BME280;41907;47.848;9.000;2022-07-29T11:31:45;95731.50;;;27.71;59.30
56038;BME280;41907;47.848;9.000;2022-07-29T11:44:59;95724.00;;;27.49;61.03
56038;BME280;41907;47.848;9.000;2022-07-29T11:47:26;95718.03;;;27.57;60.38
56038;BME280;41907;47.848;9.000;2022-07-29T11:49:53;95715.91;;;27.18;61.80
56038;BME280;41907;47.848;9.000;2022-07-29T11:52:20;95715.22;;;27.61;60.54
56038;BME280;41907;47.848;9.000;2022-07-29T11:54:49;95719.78;;;27.91;59.06
56038;BME280;41907;47.848;9.000;2022-07-29T11:57:19;95723.41;;;28.27;57.41
56038;BME280;41907;47.848;9.000;2022-07-29T11:59:46;95711.03;;;28.39;55.53
56038;BME280;41907;47.848;9.000;2022-07-29T12:02:13;95709.00;;;28.23;53.57
56038;BME280;41907;47.848;9.000;2022-07-29T12:04:50;95713.13;;;27.45;56.23
56038;BME280;41907;47.848;9.000;2022-07-29T12:07:16;95715.88;;;27.68;58.60
56038;BME280;41907;47.848;9.000;2022-07-29T12:09:52;95711.75;;;27.80;58.15
56038;BME280;41907;47.848;9.000;2022-07-29T12:12:18;95711.59;;;27.67;60.59
56038;BME280;41907;47.848;9.000;2022-07-29T12:14:44;95714.50;;;27.57;59.54
56038;BME280;41907;47.848;9.000;2022-07-29T12:17:29;95712.91;;;27.59;58.46
56038;BME280;41907;47.848;9.000;2022-07-29T12:19:55;95708.31;;;27.53;56.03
56038;BME280;41907;47.848;9.000;2022-07-29T12:22:32;95701.41;;;27.45;56.30
56038;BME280;41907;47.848;9.000;2022-07-29T12:25:04;95703.31;;;27.24;58.18
56038;BME280;41907;47.848;9.000;2022-07-29T12:27:30;95704.38;;;27.07;58.70
56038;BME280;41907;47.848;9.000;2022-07-29T12:30:00;95707.78;;;26.57;58.78
56038;BME280;41907;47.848;9.000;2022-07-29T12:35:12;95707.75;;;26.88;59.47
56038;BME280;41907;47.848;9.000;2022-07-29T12:37:39;95701.63;;;26.50;59.09
56038;BME280;41907;47.848;9.000;2022-07-29T12:40:07;95699.25;;;26.52;59.57
56038;BME280;41907;47.848;9.000;2022-07-29T12:42:33;95701.38;;;26.41;59.21
56038;BME280;41907;47.848;9.000;2022-07-29T12:44:59;95702.19;;;26.38;60.55
56038;BME280;41907;47.848;9.000;2022-07-29T12:47:24;95702.06;;;25.77;60.82
56038;BME280;41907;47.848;9.000;2022-07-29T12:49:50;95704.44;;;25.75;64.57
56038;BME280;41907;47.848;9.000;2022-07-29T12:52:33;95700.03;;;26.18;62.64
56038;BME280;41907;47.848;9.000;2022-07-29T12:54:59;95693.34;;;26.26;62.60
56038;BME280;41907;47.848;9.000;2022-07-29T12:57:26;95702.88;;;26.11;59.85
56038;BME280;41907;47.848;9.000;2022-07-29T13:02:39;95691.53;;;26.13;59.37
56038;BME280;41907;47.848;9.000;2022-07-29T13:05:07;95694.22;;;25.82;61.04
56038;BME280;41907;47.848;9.000;2022-07-29T13:07:36;95693.03;;;25.83;62.14
56038;BME280;41907;47.848;9.000;2022-07-29T13:10:20;95700.47;;;25.83;61.79
56038;BME280;41907;47.848;9.000;2022-07-29T13:13:05;95694.16;;;25.45;62.92
56038;BME280;41907;47.848;9.000;2022-07-29T13:15:32;95696.91;;;25.45;61.07
56038;BME280;41907;47.848;9.000;2022-07-29T13:17:58;95690.50;;;25.58;62.18
56038;BME280;41907;47.848;9.000;2022-07-29T13:20:24;95690.03;;;25.71;61.93
56038;BME280;41907;47.848;9.000;2022-07-29T13:22:50;95686.59;;;25.67;59.72
56038;BME280;41907;47.848;9.000;2022-07-29T13:25:28;95682.31;;;25.66;58.91
56038;BME280;41907;47.848;9.000;2022-07-29T13:27:54;95682.66;;;25.68;58.45
56038;BME280;41907;47.848;9.000;2022-07-29T13:30:20;95684.84;;;25.39;59.48
56038;BME280;41907;47.848;9.000;2022-07-29T13:32:45;95688.44;;;25.32;62.42
56038;BME280;41907;47.848;9.000;2022-07-29T13:35:11;95689.72;;;24.55;67.42
56038;BME280;41907;47.848;9.000;2022-07-29T13:37:37;95698.28;;;24.60;69.97
56038;BME280;41907;47.848;9.000;2022-07-29T13:40:07;95708.81;;;24.55;69.28
56038;BME280;41907;47.848;9.000;2022-07-29T13:42:33;95707.69;;;24.52;67.95
56038;BME280;41907;47.848;9.000;2022-07-29T13:44:59;95733.09;;;24.28;67.17
56038;BME280;41907;47.848;9.000;2022-07-29T13:47:24;95736.75;;;23.64;67.97
56038;BME280;41907;47.848;9.000;2022-07-29T13:49:50;95742.19;;;23.47;70.32
56038;BME280;41907;47.848;9.000;2022-07-29T13:52:15;95741.00;;;22.91;73.19
56038;BME280;41907;47.848;9.000;2022-07-29T13:54:41;95734.69;;;22.58;74.48
56038;BME280;41907;47.848;9.000;2022-07-29T13:57:07;95731.97;;;22.58;74.20
56038;BME280;41907;47.848;9.000;2022-07-29T13:59:33;95746.69;;;22.50;76.74
56038;BME280;41907;47.848;9.000;2022-07-29T14:01:59;95741.13;;;22.15;80.01